Terminal Aerodrome Forecast
Issued by NWS

Home | Current Version | Previous Version | Text Only | Print | Product List | Glossary On
Versions: 1 2 3 4 5 6 7 8 9 10 11 12 13 14 15
000
FTUS46 KPDT 251100
TAFDLS
TAF
KDLS 251132Z 2512/2612 30008KT P6SM FEW040 OVC060
     FM252000 31014KT P6SM FEW060 SCT200
     FM260200 30009KT P6SM SCT100
     FM260500 29004KT 6SM BR SCT015 OVC035=

USA.gov is the U.S. government's official web portal to all federal, state and local government web resources and services.